createdAt,value
2018-05-31T00:04:18.904Z,82.20
2018-05-31T00:09:21.586Z,82.20
2018-05-31T00:14:24.978Z,82.40
2018-05-31T00:19:27.601Z,82.30
2018-05-31T00:24:31.050Z,81.50
2018-05-31T00:29:33.795Z,81.50
2018-05-31T00:34:36.380Z,83.90
2018-05-31T00:39:39.022Z,84.90
2018-05-31T00:44:41.629Z,85.10
2018-05-31T00:49:44.838Z,87.20
2018-05-31T00:54:48.284Z,86.90
2018-05-31T00:59:50.925Z,86.70
2018-05-31T01:04:53.506Z,85.40
2018-05-31T01:09:56.126Z,86.00
2018-05-31T01:14:58.974Z,86.20
2018-05-31T01:20:02.577Z,86.30
2018-05-31T01:25:05.539Z,86.20
2018-05-31T01:30:08.497Z,86.50
2018-05-31T01:35:11.988Z,85.90
2018-05-31T01:40:14.793Z,85.90
2018-05-31T01:45:17.559Z,85.80
2018-05-31T01:50:20.265Z,84.50
2018-05-31T01:55:24.220Z,84.00
2018-05-31T02:00:26.979Z,80.80
2018-05-31T02:05:30.629Z,81.60
2018-05-31T02:10:33.224Z,81.50
2018-05-31T02:15:35.838Z,81.50
2018-05-31T02:20:38.437Z,80.90
2018-05-31T02:25:41.035Z,79.00
2018-05-31T02:30:44.285Z,80.30
2018-05-31T02:35:47.357Z,80.70
2018-05-31T02:40:49.949Z,79.90
2018-05-31T02:45:53.026Z,80.50
2018-05-31T02:50:55.621Z,79.10
2018-05-31T02:56:01.585Z,81.00
2018-05-31T03:01:04.924Z,79.50
2018-05-31T03:06:08.284Z,80.20
2018-05-31T03:11:11.319Z,80.00
2018-05-31T03:16:16.620Z,79.90
2018-05-31T03:21:19.994Z,80.10
2018-05-31T03:26:22.654Z,80.00
2018-05-31T03:31:25.267Z,79.20
2018-05-31T03:36:31.031Z,78.80
2018-05-31T03:41:33.660Z,80.50
2018-05-31T03:46:36.252Z,80.60
2018-05-31T03:51:38.865Z,80.50
2018-05-31T03:56:41.897Z,80.60
2018-05-31T04:01:44.506Z,81.70
2018-05-31T04:06:47.101Z,81.20
2018-05-31T04:11:49.696Z,80.70
2018-05-31T04:16:52.302Z,80.30
2018-05-31T04:21:54.891Z,80.60
2018-05-31T04:26:57.481Z,80.30
2018-05-31T04:32:00.068Z,80.80
2018-05-31T04:37:02.792Z,80.40
2018-05-31T04:42:05.388Z,80.60
2018-05-31T04:47:07.976Z,81.80
2018-05-31T04:52:11.265Z,81.20
2018-05-31T04:57:15.498Z,81.90
2018-05-31T05:02:18.913Z,81.80
2018-05-31T05:07:21.506Z,82.60
2018-05-31T05:12:24.145Z,82.40
2018-05-31T05:17:30.181Z,82.80
2018-05-31T05:22:34.202Z,82.50
2018-05-31T05:27:37.618Z,81.90
2018-05-31T05:32:40.994Z,79.50
2018-05-31T05:37:43.676Z,79.50
2018-05-31T05:42:46.897Z,79.00
2018-05-31T05:47:49.492Z,78.30
2018-05-31T05:52:53.080Z,79.50
2018-05-31T05:57:56.737Z,77.00
2018-05-31T06:02:59.403Z,77.00
2018-05-31T06:08:03.424Z,77.50
2018-05-31T06:13:06.844Z,76.70
2018-05-31T06:18:09.437Z,76.60
2018-05-31T06:23:12.312Z,77.90
2018-05-31T06:28:15.578Z,79.60
2018-05-31T06:33:19.249Z,76.00
2018-05-31T06:38:21.848Z,75.90
2018-05-31T06:43:24.457Z,78.80
2018-05-31T06:48:27.240Z,79.00
2018-05-31T06:53:30.271Z,77.20
2018-05-31T06:58:32.841Z,76.60
2018-05-31T07:03:35.494Z,75.80
2018-05-31T07:08:38.107Z,74.60
2018-05-31T07:13:40.728Z,73.80
2018-05-31T07:18:43.748Z,72.50
2018-05-31T07:23:47.123Z,73.60
2018-05-31T07:28:49.715Z,73.60
2018-05-31T07:33:52.312Z,73.60
2018-05-31T07:38:54.896Z,74.50
2018-05-31T07:43:57.490Z,73.80
2018-05-31T07:49:00.214Z,71.50
2018-05-31T07:54:03.100Z,71.80
2018-05-31T07:59:05.906Z,74.00
2018-05-31T08:04:09.145Z,76.00
2018-05-31T08:09:12.004Z,77.10
2018-05-31T08:14:14.608Z,74.90
2018-05-31T08:19:17.205Z,74.20
2018-05-31T08:24:19.794Z,73.10
2018-05-31T08:29:23.404Z,72.10
2018-05-31T08:34:26.114Z,72.10
2018-05-31T08:39:28.786Z,72.80
2018-05-31T08:44:31.393Z,73.50
2018-05-31T08:49:34.294Z,74.70
2018-05-31T08:54:36.901Z,72.80
2018-05-31T08:59:40.724Z,74.20
2018-05-31T09:04:43.592Z,72.80
2018-05-31T09:09:46.278Z,72.50
2018-05-31T09:14:48.936Z,70.80
2018-05-31T09:19:54.606Z,73.20
2018-05-31T09:24:57.953Z,72.60
2018-05-31T09:30:01.303Z,71.70
2018-05-31T09:35:03.938Z,71.60
2018-05-31T09:40:09.661Z,72.70
2018-05-31T09:45:12.340Z,71.00
2018-05-31T09:50:15.805Z,70.40
2018-05-31T09:55:18.441Z,70.40
2018-05-31T10:00:21.298Z,69.90
2018-05-31T10:05:23.884Z,70.90
2018-05-31T10:10:26.475Z,69.90
2018-05-31T10:15:29.063Z,67.70
2018-05-31T10:20:32.419Z,65.20
2018-05-31T10:25:35.005Z,65.20
2018-05-31T10:30:37.890Z,65.90
2018-05-31T10:35:41.164Z,66.40
2018-05-31T10:40:45.298Z,62.60
2018-05-31T10:45:48.027Z,62.50
2018-05-31T10:50:50.647Z,62.30
2018-05-31T10:55:53.217Z,61.20
2018-05-31T11:00:55.817Z,57.20
2018-05-31T11:05:58.703Z,57.60
2018-05-31T11:11:02.050Z,57.70
2018-05-31T11:16:05.397Z,56.20
2018-05-31T11:21:07.997Z,56.10
2018-05-31T11:26:10.655Z,55.30
2018-05-31T11:31:13.312Z,55.50
2018-05-31T11:36:16.613Z,51.90
2018-05-31T11:41:19.195Z,51.80
2018-05-31T11:46:22.605Z,48.30
2018-05-31T11:51:26.006Z,51.60
2018-05-31T11:56:30.281Z,51.50
2018-05-31T12:01:32.804Z,52.40
2018-05-31T12:06:35.367Z,50.50
2018-05-31T12:11:38.761Z,49.30
2018-05-31T12:16:42.772Z,49.60
2018-05-31T12:21:45.407Z,49.60
2018-05-31T12:26:48.379Z,47.10
2018-05-31T12:31:51.019Z,47.50
2018-05-31T12:36:54.358Z,47.80
2018-05-31T12:41:56.918Z,47.70
2018-05-31T12:46:59.479Z,49.10
2018-05-31T12:52:02.110Z,50.00
2018-05-31T12:57:04.786Z,51.10
2018-05-31T13:02:10.274Z,50.70
2018-05-31T13:07:12.878Z,49.80
2018-05-31T13:12:15.452Z,49.00
2018-05-31T13:17:18.072Z,47.70
2018-05-31T13:22:20.637Z,47.40
2018-05-31T13:27:23.238Z,43.90
2018-05-31T13:32:25.850Z,44.40
2018-05-31T13:37:28.438Z,43.40
2018-05-31T13:42:31.082Z,46.60
2018-05-31T13:47:33.648Z,48.30
2018-05-31T13:52:36.243Z,48.70
2018-05-31T13:57:39.529Z,45.30
2018-05-31T14:02:42.113Z,46.80
2018-05-31T14:07:45.459Z,42.20
2018-05-31T14:12:48.024Z,42.20
2018-05-31T14:17:50.662Z,41.20
2018-05-31T14:22:53.264Z,42.90
2018-05-31T14:27:55.877Z,41.80
2018-05-31T14:32:58.496Z,39.40
2018-05-31T14:38:01.093Z,41.60
2018-05-31T14:43:03.688Z,40.80
2018-05-31T14:48:06.272Z,41.20
2018-05-31T14:53:08.846Z,40.30
2018-05-31T14:58:11.424Z,39.90
2018-05-31T15:03:14.918Z,42.00
2018-05-31T15:08:17.512Z,41.90
2018-05-31T15:13:20.866Z,42.70
2018-05-31T15:18:24.524Z,43.10
2018-05-31T15:23:27.138Z,43.00
2018-05-31T15:28:29.726Z,41.30
2018-05-31T15:33:33.166Z,39.30
2018-05-31T15:38:35.791Z,39.40
2018-05-31T15:43:38.406Z,39.30
2018-05-31T15:48:42.341Z,38.60
2018-05-31T15:53:45.757Z,39.90
2018-05-31T15:58:49.132Z,39.60
2018-05-31T16:03:51.691Z,39.40
2018-05-31T16:08:54.276Z,40.60
2018-05-31T16:13:57.613Z,43.60
2018-05-31T16:19:00.178Z,43.60
2018-05-31T16:24:05.359Z,45.20
2018-05-31T16:29:09.013Z,47.00
2018-05-31T16:39:20.940Z,48.50
2018-05-31T16:44:25.385Z,49.90
2018-05-31T16:49:28.736Z,50.70
2018-05-31T16:54:31.789Z,50.70
2018-05-31T16:59:34.361Z,48.50
2018-05-31T17:04:37.417Z,48.20
2018-05-31T17:09:40.034Z,46.80
2018-05-31T17:14:44.947Z,47.60
2018-05-31T17:19:47.747Z,48.60
2018-05-31T17:24:50.775Z,48.80
2018-05-31T17:29:54.113Z,50.80
2018-05-31T17:34:56.688Z,50.60
2018-05-31T17:39:59.628Z,51.10
2018-05-31T17:45:03.214Z,51.30
2018-05-31T17:50:06.284Z,51.50
2018-05-31T17:55:09.437Z,52.10
2018-05-31T18:00:12.229Z,52.10
2018-05-31T18:05:14.814Z,53.00
2018-05-31T18:10:18.172Z,53.50
2018-05-31T18:15:21.523Z,52.30
2018-05-31T18:20:24.122Z,52.30
2018-05-31T18:25:27.181Z,53.40
2018-05-31T18:30:29.815Z,54.50
2018-05-31T18:35:32.408Z,53.10
2018-05-31T18:40:35.025Z,54.20
2018-05-31T18:45:37.619Z,55.70
2018-05-31T18:50:40.239Z,56.30
2018-05-31T18:55:42.833Z,56.00
2018-05-31T19:00:46.055Z,55.60
2018-05-31T19:05:48.679Z,55.80
2018-05-31T19:10:51.576Z,56.00
2018-05-31T19:15:54.402Z,56.30
2018-05-31T19:20:57.751Z,57.40
2018-05-31T19:26:00.863Z,57.30
2018-05-31T19:31:09.923Z,57.40
2018-05-31T19:36:18.568Z,58.60
2018-05-31T19:41:21.142Z,59.90
2018-05-31T19:46:24.539Z,57.10
2018-05-31T19:51:32.788Z,57.00
2018-05-31T19:56:36.602Z,61.70
2018-05-31T20:01:44.896Z,61.60
2018-05-31T20:06:47.453Z,60.90
2018-05-31T20:11:50.992Z,62.90
2018-05-31T20:16:53.625Z,65.10
2018-05-31T20:21:56.211Z,69.10
2018-05-31T20:26:58.862Z,70.70
2018-05-31T20:32:01.503Z,72.10
2018-05-31T20:37:05.044Z,72.50
2018-05-31T20:42:08.125Z,69.90
2018-05-31T20:47:10.727Z,68.70
2018-05-31T20:52:13.353Z,74.60
2018-05-31T20:57:16.719Z,78.00
2018-05-31T21:02:20.619Z,81.40
2018-05-31T21:07:23.279Z,82.30
2018-05-31T21:12:26.329Z,82.60
2018-05-31T21:17:28.893Z,87.40
2018-05-31T21:27:35.380Z,90.30
2018-05-31T21:32:37.955Z,90.70
2018-05-31T21:37:40.529Z,91.60
2018-05-31T21:42:43.180Z,92.00
2018-05-31T21:47:46.554Z,91.30
2018-05-31T21:52:49.163Z,91.20
2018-05-31T21:57:51.811Z,91.20
2018-05-31T22:02:55.195Z,89.90
2018-05-31T22:07:57.859Z,89.90
2018-05-31T22:13:00.844Z,89.90
2018-05-31T22:18:03.623Z,88.70
2018-05-31T22:23:06.617Z,87.00
2018-05-31T22:28:09.529Z,84.40
2018-05-31T22:33:12.971Z,83.40
2018-05-31T22:38:17.135Z,82.70
2018-05-31T22:43:19.882Z,82.70
2018-05-31T22:48:22.493Z,82.60
2018-05-31T22:53:25.260Z,83.20
2018-05-31T22:58:28.080Z,84.80
2018-05-31T23:03:30.740Z,86.00
2018-05-31T23:08:39.139Z,85.30
2018-05-31T23:13:42.667Z,84.30
2018-05-31T23:18:46.093Z,85.70
2018-05-31T23:23:49.547Z,84.50
2018-05-31T23:28:52.173Z,84.40
2018-05-31T23:33:54.841Z,84.00
2018-05-31T23:38:57.485Z,79.60
2018-05-31T23:44:00.088Z,79.50
2018-05-31T23:49:02.750Z,79.70
2018-05-31T23:54:05.417Z,78.60
2018-05-31T23:59:08.840Z,78.20
